Time;durP1;ratioP1;P1;durP2;ratioP2;P2;SDS_P1;SDS_P2;PMS_P1;PMS_P2;Temp;Humidity;BMP_temperature;BMP_pressure;BME280_temperature;BME280_humidity;BME280_pressure;Samples;Min_cycle;Max_cycle;Signal;HPM_P1;HPM_P2
2024/02/04 00:00:48;;;;;;;3.20;1.92;;;;;;;7.41;100.00;98965.00;6107343;19;19999;-72
2024/02/04 00:02:48;;;;;;;2.00;1.63;;;;;;;7.40;100.00;98963.38;6107400;19;20369;-72
2024/02/04 00:04:49;;;;;;;1.83;1.40;;;;;;;7.41;100.00;98954.78;6108009;19;20007;-72
2024/02/04 00:06:49;;;;;;;2.55;1.60;;;;;;;7.40;100.00;98963.38;6107047;19;20013;-72
2024/02/04 00:08:49;;;;;;;2.22;1.52;;;;;;;7.44;100.00;98959.59;6106535;19;20017;-72
2024/02/04 00:10:50;;;;;;;3.17;2.05;;;;;;;7.41;100.00;98967.75;6106423;19;20023;-72
2024/02/04 00:12:50;;;;;;;2.30;1.60;;;;;;;7.39;100.00;98961.78;6107446;19;20014;-72
2024/02/04 00:14:50;;;;;;;2.60;1.98;;;;;;;7.49;100.00;98964.06;6108264;19;20009;-72
2024/02/04 00:16:51;;;;;;;2.78;2.00;;;;;;;7.55;100.00;98976.47;6106225;19;20010;-72
2024/02/04 00:18:51;;;;;;;4.00;2.30;;;;;;;7.53;100.00;98974.06;6107001;19;20010;-72
2024/02/04 00:20:51;;;;;;;2.92;2.40;;;;;;;7.50;100.00;98971.19;6106357;19;20011;-72
2024/02/04 00:22:52;;;;;;;4.80;2.63;;;;;;;7.44;100.00;98965.09;6106615;19;20014;-72
2024/02/04 00:24:52;;;;;;;3.65;2.33;;;;;;;7.39;100.00;98961.78;6105255;19;20027;-72
2024/02/04 00:26:52;;;;;;;3.83;2.40;;;;;;;7.38;100.00;98972.00;6107206;19;20296;-72
2024/02/04 00:28:53;;;;;;;4.45;2.20;;;;;;;7.41;100.00;98971.28;6106153;19;20007;-72
2024/02/04 00:30:55;;;;;;;4.32;2.20;;;;;;;7.39;100.00;98968.09;6107238;19;20014;-72
2024/02/04 00:32:55;;;;;;;4.13;2.80;;;;;;;7.38;100.00;98972.00;6106313;19;20018;-72
2024/02/04 00:34:56;;;;;;;3.13;2.20;;;;;;;7.35;100.00;98969.91;6106996;19;20390;-72
2024/02/04 00:36:56;;;;;;;4.05;2.22;;;;;;;7.33;100.00;98956.50;6105096;19;20010;-72
2024/02/04 00:38:56;;;;;;;3.70;2.42;;;;;;;7.31;100.00;98961.56;6105660;19;20491;-72
2024/02/04 00:40:56;;;;;;;3.97;2.60;;;;;;;7.32;100.00;98965.91;6107201;19;20006;-72
2024/02/04 00:42:57;;;;;;;3.90;2.30;;;;;;;7.44;100.00;98962.34;6106989;19;20074;-72
2024/02/04 00:44:57;;;;;;;2.70;2.00;;;;;;;7.53;100.00;98954.78;6105670;19;20010;-72
2024/02/04 00:46:57;;;;;;;3.83;2.13;;;;;;;7.54;100.00;98961.09;6105980;19;20006;-72
2024/02/04 00:48:58;;;;;;;3.15;2.10;;;;;;;7.52;100.00;98941.34;6105901;19;20126;-72
2024/02/04 00:50:58;;;;;;;3.75;2.15;;;;;;;7.49;100.00;98947.53;6105774;19;20003;-72
2024/02/04 00:52:58;;;;;;;3.20;1.90;;;;;;;7.48;100.00;98937.69;6105893;19;20003;-72
2024/02/04 00:54:59;;;;;;;3.17;2.00;;;;;;;7.51;100.00;98942.50;6107041;19;20451;-72
2024/02/04 00:57:00;;;;;;;2.58;1.65;;;;;;;7.65;100.00;98945.69;6105474;19;20598;-72
2024/02/04 00:59:00;;;;;;;1.83;1.33;;;;;;;7.61;100.00;98947.50;6105559;19;20007;-72
2024/02/04 01:01:00;;;;;;;2.10;1.40;;;;;;;7.67;100.00;98948.09;6106637;19;20006;-72
2024/02/04 01:03:01;;;;;;;2.67;1.40;;;;;;;7.61;100.00;98931.00;6106176;19;20246;-72
2024/02/04 01:05:01;;;;;;;1.52;1.30;;;;;;;7.54;100.00;98923.34;6106455;19;20409;-72
2024/02/04 01:07:01;;;;;;;1.75;1.30;;;;;;;7.54;100.00;98914.28;6105100;19;20003;-72
2024/02/04 01:09:02;;;;;;;2.35;1.20;;;;;;;7.51;100.00;98914.94;6105578;19;20007;-72
2024/02/04 01:11:02;;;;;;;2.55;1.30;;;;;;;7.47;100.00;98919.56;6103801;19;20066;-72
2024/02/04 01:13:04;;;;;;;1.75;1.40;;;;;;;7.47;100.00;98922.31;6106063;19;20327;-72
2024/02/04 01:15:05;;;;;;;2.50;1.87;;;;;;;7.47;100.00;98914.06;6106334;19;20392;-72
2024/02/04 01:17:07;;;;;;;1.83;1.40;;;;;;;7.43;100.00;98910.38;6104954;19;20007;-72
2024/02/04 01:19:07;;;;;;;2.30;1.67;;;;;;;7.38;100.00;98905.13;6105989;19;20255;-72
2024/02/04 01:21:08;;;;;;;3.00;1.98;;;;;;;7.41;100.00;98904.44;6106796;19;20007;-72
2024/02/04 01:23:09;;;;;;;3.17;2.00;;;;;;;7.35;100.00;98901.09;6112183;19;20038;-72
2024/02/04 01:25:09;;;;;;;2.70;1.90;;;;;;;7.36;100.00;98905.44;6112327;19;20321;-72
2024/02/04 01:27:09;;;;;;;2.92;1.95;;;;;;;7.44;100.00;98906.47;6111475;19;20007;-72
2024/02/04 01:29:10;;;;;;;2.63;2.03;;;;;;;7.49;100.00;98903.50;6111664;19;20013;-72
2024/02/04 01:31:10;;;;;;;3.83;2.30;;;;;;;7.48;100.00;98904.66;6111804;19;20335;-72
2024/02/04 01:33:11;;;;;;;2.75;2.00;;;;;;;7.54;100.00;98917.03;6112028;19;20625;-72
2024/02/04 01:35:11;;;;;;;3.47;2.42;;;;;;;7.62;100.00;98901.53;6111979;19;20007;-72
2024/02/04 01:37:11;;;;;;;2.67;1.98;;;;;;;7.59;100.00;98914.03;6110758;19;20078;-71
2024/02/04 01:39:12;;;;;;;4.40;2.28;;;;;;;7.59;100.00;98903.00;6109989;19;20081;-72
2024/02/04 01:41:12;;;;;;;3.90;2.13;;;;;;;7.75;100.00;98905.84;6112694;19;20043;-72
2024/02/04 01:43:12;;;;;;;3.28;2.55;;;;;;;7.79;100.00;98899.28;6111336;19;20022;-72
2024/02/04 01:45:13;;;;;;;3.75;1.98;;;;;;;7.78;100.00;98908.72;6112379;19;20014;-72
2024/02/04 01:47:14;;;;;;;4.22;2.83;;;;;;;7.79;100.00;98904.81;6109851;19;20007;-72
2024/02/04 01:49:15;;;;;;;4.95;2.70;;;;;;;7.81;100.00;98898.94;6111296;19;20027;-72
2024/02/04 01:51:17;;;;;;;3.92;2.60;;;;;;;7.90;100.00;98907.84;6109862;19;20010;-72
2024/02/04 01:53:22;;;;;;;4.57;2.88;;;;;;;7.88;100.00;98897.19;6111070;19;20043;-72
2024/02/04 01:55:22;;;;;;;3.63;2.58;;;;;;;7.91;100.00;98897.63;6110524;19;20014;-72
2024/02/04 01:57:23;;;;;;;5.03;2.75;;;;;;;7.88;100.00;98896.41;6110314;19;20016;-72
2024/02/04 01:59:30;;;;;;;3.72;2.70;;;;;;;7.84;100.00;98896.28;6109621;19;20035;-72
2024/02/04 02:01:31;;;;;;;5.53;2.50;;;;;;;7.89;100.00;98895.25;6110908;19;20002;-72
2024/02/04 02:03:32;;;;;;;4.38;2.70;;;;;;;7.96;100.00;98894.66;6110663;19;20358;-72
2024/02/04 02:05:32;;;;;;;2.90;2.00;;;;;;;7.91;100.00;98879.16;6110573;19;20002;-71
2024/02/04 02:07:33;;;;;;;2.67;1.80;;;;;;;7.91;100.00;98881.91;6109167;19;19999;-72
2024/02/04 02:09:33;;;;;;;2.83;2.15;;;;;;;7.87;100.00;98892.84;6110046;19;20322;-72
2024/02/04 02:11:40;;;;;;;3.22;1.80;;;;;;;7.87;100.00;98897.56;6110072;19;20058;-71
2024/02/04 02:13:42;;;;;;;3.78;2.17;;;;;;;7.94;100.00;98906.00;6110557;19;20032;-71
2024/02/04 02:15:51;;;;;;;2.50;1.77;;;;;;;8.02;100.00;98904.25;6110687;19;20535;-72
2024/02/04 02:17:57;;;;;;;3.20;1.80;;;;;;;8.03;100.00;98897.59;6109361;19;20072;-72
2024/02/04 02:20:10;;;;;;;2.95;1.80;;;;;;;8.02;100.00;98893.22;6110581;19;20011;-72
2024/02/04 02:22:30;;;;;;;2.42;2.22;;;;;;;8.03;100.00;98894.84;6109873;19;20026;-72
2024/02/04 02:24:42;;;;;;;2.70;1.75;;;;;;;7.96;100.00;98880.88;6111993;19;20412;-71
2024/02/04 02:26:43;;;;;;;2.63;2.17;;;;;;;8.01;100.00;98889.66;6109252;19;20466;-72
2024/02/04 02:28:43;;;;;;;2.85;2.00;;;;;;;8.04;100.00;98901.97;6111122;19;20013;-72
2024/02/04 02:30:44;;;;;;;3.00;2.00;;;;;;;7.97;100.00;98890.75;6110493;19;19999;-72
2024/02/04 02:32:46;;;;;;;2.63;1.98;;;;;;;7.93;100.00;98907.16;6109846;19;20011;-72
2024/02/04 02:34:46;;;;;;;2.80;2.03;;;;;;;7.99;100.00;98902.19;6110571;19;20328;-71
2024/02/04 02:36:59;;;;;;;2.47;1.65;;;;;;;8.00;100.00;98901.03;6110530;19;20006;-72
2024/02/04 02:39:13;;;;;;;2.92;2.22;;;;;;;8.06;100.00;98894.13;6109880;19;20409;-72
2024/02/04 02:41:15;;;;;;;2.80;2.03;;;;;;;8.11;100.00;98880.13;6111071;19;20014;-71
2024/02/04 02:43:16;;;;;;;;;;;;;;;8.17;100.00;98892.47;6111909;19;20011;-71
2024/02/04 02:45:19;;;;;;;2.35;1.80;;;;;;;8.16;100.00;98894.44;6111678;19;19934;-72
2024/02/04 02:47:22;;;;;;;3.90;1.92;;;;;;;8.20;100.00;98891.78;6099007;19;20451;-72
2024/02/04 02:49:22;;;;;;;2.95;1.90;;;;;;;8.18;100.00;98892.13;6109186;19;20006;-71
2024/02/04 02:51:23;;;;;;;4.40;2.08;;;;;;;8.24;100.00;98875.31;6110437;19;20084;-71
2024/02/04 02:53:23;;;;;;;2.90;2.17;;;;;;;8.23;100.00;98879.25;6111037;19;20003;-71
2024/02/04 02:55:23;;;;;;;3.20;1.80;;;;;;;8.20;100.00;98871.69;6110811;19;20011;-72
2024/02/04 02:57:24;;;;;;;3.22;2.00;;;;;;;8.17;100.00;98867.66;6109121;19;20454;-72
2024/02/04 02:59:24;;;;;;;2.22;1.70;;;;;;;8.11;100.00;98869.09;6106211;19;20011;-72
2024/02/04 03:01:24;;;;;;;3.03;1.88;;;;;;;8.09;100.00;98868.63;6109880;19;20345;-71
2024/02/04 03:03:24;;;;;;;4.28;2.00;;;;;;;8.07;100.00;98870.94;6109670;19;20017;-71
2024/02/04 03:05:25;;;;;;;2.75;1.70;;;;;;;8.14;100.00;98871.13;6109417;19;20359;-71
2024/02/04 03:07:25;;;;;;;2.72;1.95;;;;;;;8.11;100.00;98861.63;6108926;19;20580;-72
2024/02/04 03:09:25;;;;;;;2.38;1.83;;;;;;;8.05;100.00;98853.97;6109519;19;20014;-72
2024/02/04 03:11:26;;;;;;;2.05;1.60;;;;;;;8.02;100.00;98854.66;6110694;19;20014;-72
2024/02/04 03:13:26;;;;;;;2.50;1.55;;;;;;;7.94;100.00;98845.38;6109683;19;20021;-71
2024/02/04 03:15:27;;;;;;;2.47;1.70;;;;;;;7.95;100.00;98862.75;6108541;19;20511;-71
2024/02/04 03:17:27;;;;;;;4.25;1.92;;;;;;;8.04;100.00;98850.41;6108597;19;20010;-71
2024/02/04 03:19:27;;;;;;;3.60;1.90;;;;;;;8.04;100.00;98858.66;6108740;19;20580;-71
2024/02/04 03:21:27;;;;;;;2.83;1.77;;;;;;;7.95;100.00;98860.78;6107755;19;20006;-72
2024/02/04 03:23:28;;;;;;;2.72;1.83;;;;;;;7.92;100.00;98860.66;6108845;19;20033;-71
2024/02/04 03:25:29;;;;;;;2.63;2.10;;;;;;;7.87;100.00;98867.25;6110812;19;20006;-71
2024/02/04 03:27:29;;;;;;;3.03;1.80;;;;;;;7.81;100.00;98869.44;6108948;19;20006;-72
2024/02/04 03:29:29;;;;;;;2.08;1.70;;;;;;;7.97;100.00;98876.97;6108292;19;20010;-72
2024/02/04 03:31:31;;;;;;;2.25;1.67;;;;;;;7.94;100.00;98867.41;6108463;19;20359;-71
2024/02/04 03:33:31;;;;;;;2.03;1.67;;;;;;;7.98;100.00;98870.28;6109200;19;20011;-72
2024/02/04 03:35:31;;;;;;;3.03;1.77;;;;;;;8.03;100.00;98889.34;6109742;19;20666;-71
2024/02/04 03:37:32;;;;;;;3.38;2.03;;;;;;;8.08;100.00;98880.81;6109329;19;20007;-71
2024/02/04 03:39:32;;;;;;;2.13;1.70;;;;;;;8.03;100.00;98878.31;6108065;19;19998;-72
2024/02/04 03:41:32;;;;;;;2.55;1.70;;;;;;;7.98;100.00;98876.59;6108216;19;20034;-72
2024/02/04 03:43:32;;;;;;;1.98;1.70;;;;;;;8.03;100.00;98879.13;6108901;19;20032;-71
2024/02/04 03:45:33;;;;;;;1.92;1.60;;;;;;;8.03;100.00;98887.38;6108005;19;20047;-72
2024/02/04 03:47:33;;;;;;;2.30;1.75;;;;;;;8.05;100.00;98881.50;6097974;19;20345;-71
2024/02/04 03:49:33;;;;;;;2.80;2.00;;;;;;;8.08;100.00;98880.81;6094344;19;20015;-72
2024/02/04 03:51:34;;;;;;;2.22;1.80;;;;;;;8.06;100.00;98874.84;6094545;19;20308;-71
2024/02/04 03:53:34;;;;;;;1.60;1.38;;;;;;;8.08;100.00;98872.53;6095068;19;20354;-72
2024/02/04 03:55:34;;;;;;;1.60;1.40;;;;;;;8.13;100.00;98881.34;6094241;19;20335;-71
2024/02/04 03:57:34;;;;;;;2.53;1.30;;;;;;;8.04;100.00;98872.44;6094146;19;20002;-72
2024/02/04 03:59:35;;;;;;;1.60;1.15;;;;;;;8.00;100.00;98865.22;6094321;19;20345;-72
2024/02/04 04:01:36;;;;;;;1.20;1.00;;;;;;;8.03;100.00;98872.81;6094435;19;20624;-72
2024/02/04 04:03:39;;;;;;;1.25;1.10;;;;;;;7.98;100.00;98857.31;6094078;19;20013;-71
2024/02/04 04:05:39;;;;;;;1.30;1.00;;;;;;;8.00;100.00;98859.72;6095256;19;20003;-72
2024/02/04 04:07:40;;;;;;;1.38;1.17;;;;;;;7.95;100.00;98863.53;6092393;19;19999;-72
2024/02/04 04:09:40;;;;;;;1.25;1.13;;;;;;;7.92;100.00;98841.38;6093829;19;20466;-72
2024/02/04 04:11:40;;;;;;;1.33;1.00;;;;;;;7.92;100.00;98844.94;6092998;19;20035;-72
2024/02/04 04:13:41;;;;;;;1.45;1.30;;;;;;;7.97;100.00;98841.94;6095130;19;20013;-72
2024/02/04 04:15:42;;;;;;;0.93;0.90;;;;;;;7.97;100.00;98836.44;6094657;19;20006;-72
2024/02/04 04:17:42;;;;;;;0.90;0.80;;;;;;;7.95;100.00;98844.25;6092971;19;20484;-72
2024/02/04 04:19:43;;;;;;;0.85;0.80;;;;;;;7.94;100.00;98852.84;6093608;19;20006;-72
2024/02/04 04:21:43;;;;;;;0.90;0.90;;;;;;;8.00;100.00;98843.97;6093710;19;20012;-72
2024/02/04 04:23:43;;;;;;;1.23;1.13;;;;;;;8.08;100.00;98848.53;6094128;19;20693;-72
2024/02/04 04:25:44;;;;;;;1.05;0.90;;;;;;;8.15;100.00;98858.94;6094412;19;20026;-72
2024/02/04 04:27:44;;;;;;;0.90;0.65;;;;;;;8.14;100.00;98852.63;6093096;19;20019;-72
2024/02/04 04:29:44;;;;;;;1.25;0.80;;;;;;;8.12;100.00;98854.16;6093347;19;20797;-72
2024/02/04 04:31:45;;;;;;;1.05;0.77;;;;;;;8.12;100.00;98857.72;6092872;19;20014;-72
2024/02/04 04:33:45;;;;;;;1.00;0.70;;;;;;;8.04;100.00;98866.13;6093216;19;20018;-72
2024/02/04 04:35:45;;;;;;;0.88;0.82;;;;;;;7.99;100.00;98850.66;6093802;19;20002;-72
2024/02/04 04:37:46;;;;;;;0.98;0.80;;;;;;;7.96;100.00;98856.06;6092093;19;20459;-72
2024/02/04 04:39:46;;;;;;;0.90;0.88;;;;;;;8.00;100.00;98856.97;6092827;19;20003;-72
2024/02/04 04:41:46;;;;;;;0.73;0.70;;;;;;;7.95;100.00;98837.94;6092693;19;20845;-72
2024/02/04 04:43:47;;;;;;;1.33;1.00;;;;;;;7.97;100.00;98847.44;6093122;19;20007;-72
2024/02/04 04:45:47;;;;;;;1.98;0.80;;;;;;;7.96;100.00;98843.09;6092976;19;20790;-72
2024/02/04 04:47:47;;;;;;;1.05;0.75;;;;;;;8.00;100.00;98845.94;6099958;19;20089;-72
2024/02/04 04:49:48;;;;;;;1.10;1.00;;;;;;;7.96;100.00;98845.84;6106894;19;20010;-72
2024/02/04 04:51:48;;;;;;;0.82;0.80;;;;;;;8.00;100.00;98832.16;6108016;19;20707;-72
2024/02/04 04:53:48;;;;;;;0.93;0.85;;;;;;;7.98;100.00;98831.72;6107363;19;20020;-72
2024/02/04 04:55:48;;;;;;;1.15;0.90;;;;;;;7.95;100.00;98826.91;6109219;19;20092;-71
2024/02/04 04:57:49;;;;;;;0.98;0.88;;;;;;;7.95;100.00;98843.44;6112124;19;20013;-72
2024/02/04 04:59:49;;;;;;;0.70;0.70;;;;;;;7.85;100.00;98837.28;6112488;19;20029;-72
2024/02/04 05:01:50;;;;;;;0.60;0.60;;;;;;;7.89;100.00;98831.88;6112509;19;20002;-72
2024/02/04 05:03:50;;;;;;;0.75;0.70;;;;;;;7.87;100.00;98829.47;6113071;19;20019;-72
2024/02/04 05:05:50;;;;;;;0.65;0.65;;;;;;;7.97;100.00;98843.91;6112286;19;20003;-72
2024/02/04 05:07:51;;;;;;;0.70;0.70;;;;;;;7.93;100.00;98835.50;6111829;19;20451;-72
2024/02/04 05:09:51;;;;;;;0.77;0.77;;;;;;;7.94;100.00;98828.84;6111840;19;20011;-72
2024/02/04 05:11:51;;;;;;;0.70;0.70;;;;;;;7.89;100.00;98835.44;6113476;19;20007;-72
2024/02/04 05:13:52;;;;;;;0.63;0.63;;;;;;;7.95;100.00;98843.44;6112042;19;20622;-72
2024/02/04 05:15:52;;;;;;;0.60;0.60;;;;;;;7.92;100.00;98833.91;6111623;19;20022;-72
2024/02/04 05:17:52;;;;;;;0.60;0.60;;;;;;;7.95;100.00;98849.75;6111506;19;20011;-71
2024/02/04 05:19:52;;;;;;;0.60;0.60;;;;;;;7.96;100.00;98839.53;6113277;19;20451;-72
2024/02/04 05:21:53;;;;;;;0.57;0.57;;;;;;;7.96;100.00;98845.06;6111741;19;20081;-72
2024/02/04 05:23:53;;;;;;;0.60;0.60;;;;;;;7.91;100.00;98853.56;6112333;19;20121;-73
2024/02/04 05:25:53;;;;;;;0.60;0.60;;;;;;;7.94;100.00;98850.09;6113337;19;20515;-72
2024/02/04 05:27:54;;;;;;;0.60;0.60;;;;;;;7.97;100.00;98838.38;6111007;19;20552;-72
2024/02/04 05:29:54;;;;;;;0.50;0.50;;;;;;;7.94;100.00;98842.63;6111150;19;20010;-71
2024/02/04 05:31:54;;;;;;;0.50;0.50;;;;;;;7.96;100.00;98834.03;6112550;19;20014;-72
2024/02/04 05:33:55;;;;;;;0.55;0.55;;;;;;;7.95;100.00;98824.97;6111975;19;20010;-72
2024/02/04 05:35:56;;;;;;;0.55;0.55;;;;;;;7.97;100.00;98830.13;6111946;19;20030;-72
2024/02/04 05:37:56;;;;;;;0.40;0.40;;;;;;;7.94;100.00;98806.00;6110476;19;20066;-72
2024/02/04 05:39:56;;;;;;;0.40;0.40;;;;;;;7.93;100.00;98807.97;6111496;19;20396;-72
2024/02/04 05:41:56;;;;;;;0.60;0.50;;;;;;;7.96;100.00;98815.53;6112210;19;20337;-72
2024/02/04 05:43:57;;;;;;;0.50;0.50;;;;;;;7.97;100.00;98814.38;6110788;19;20017;-71
2024/02/04 05:45:57;;;;;;;0.40;0.40;;;;;;;7.93;100.00;98805.22;6112254;19;20070;-72
2024/02/04 05:47:58;;;;;;;0.50;0.50;;;;;;;7.93;100.00;98799.69;6110217;19;20227;-71
2024/02/04 05:49:58;;;;;;;0.40;0.40;;;;;;;7.91;100.00;98801.22;6111030;19;20002;-72
2024/02/04 05:51:58;;;;;;;0.50;0.50;;;;;;;7.86;100.00;98813.28;6111782;19;20015;-72
2024/02/04 05:53:59;;;;;;;1.80;0.50;;;;;;;7.86;100.00;98814.09;6111977;19;20006;-72
2024/02/04 05:55:59;;;;;;;0.40;0.40;;;;;;;7.91;100.00;98820.50;6111975;19;20457;-72
2024/02/04 05:57:59;;;;;;;0.50;0.50;;;;;;;7.88;100.00;98803.53;6110443;19;20003;-72
2024/02/04 06:00:00;;;;;;;0.55;0.40;;;;;;;7.88;100.00;98798.00;6110788;19;20022;-72
2024/02/04 06:02:00;;;;;;;0.50;0.50;;;;;;;7.91;100.00;98803.97;6111626;19;20010;-72
2024/02/04 06:04:00;;;;;;;1.60;0.68;;;;;;;7.95;100.00;98799.38;6111191;19;20009;-72
2024/02/04 06:06:01;;;;;;;0.50;0.50;;;;;;;7.94;100.00;98817.03;6111472;19;20011;-72
2024/02/04 06:08:01;;;;;;;0.50;0.50;;;;;;;7.99;100.00;98825.84;6108596;19;20026;-72
2024/02/04 06:10:03;;;;;;;1.35;0.50;;;;;;;8.01;100.00;98811.72;6112011;19;20447;-72
2024/02/04 06:12:06;;;;;;;0.47;0.47;;;;;;;7.97;100.00;98797.84;6111299;19;20002;-72
2024/02/04 06:14:06;;;;;;;1.42;0.57;;;;;;;8.01;100.00;98809.75;6109852;19;20026;-71
2024/02/04 06:16:07;;;;;;;0.60;0.60;;;;;;;8.00;100.00;98804.59;6109582;19;20002;-72
2024/02/04 06:18:07;;;;;;;0.50;0.50;;;;;;;8.03;100.00;98814.94;6109942;19;19999;-72
2024/02/04 06:20:08;;;;;;;0.50;0.50;;;;;;;8.07;100.00;98813.06;6110306;19;20368;-72
2024/02/04 06:22:08;;;;;;;0.60;0.60;;;;;;;8.03;100.00;98824.00;6110111;19;20006;-72
2024/02/04 06:24:08;;;;;;;0.50;0.50;;;;;;;8.08;100.00;98823.72;6109785;19;19995;-72
2024/02/04 06:26:09;;;;;;;0.50;0.50;;;;;;;8.10;100.00;98824.16;6111261;19;20009;-72
2024/02/04 06:28:10;;;;;;;0.82;0.55;;;;;;;8.15;100.00;98832.19;6109100;19;20007;-72
2024/02/04 06:30:11;;;;;;;0.93;0.50;;;;;;;8.11;100.00;98836.03;6110416;19;20010;-72
2024/02/04 06:32:13;;;;;;;0.50;0.50;;;;;;;8.04;100.00;98835.81;6110438;19;19999;-72
2024/02/04 06:34:13;;;;;;;0.50;0.50;;;;;;;8.00;100.00;98824.69;6111071;19;20002;-72
2024/02/04 06:36:13;;;;;;;0.50;0.50;;;;;;;8.06;100.00;98825.25;6110843;19;20273;-72
2024/02/04 06:38:14;;;;;;;0.40;0.40;;;;;;;8.00;100.00;98812.88;6109673;19;20062;-72
2024/02/04 06:40:14;;;;;;;0.85;0.57;;;;;;;7.97;100.00;98813.59;6110595;19;20026;-71
2024/02/04 06:42:14;;;;;;;0.40;0.40;;;;;;;7.97;100.00;98819.09;6109910;19;20015;-72
2024/02/04 06:44:15;;;;;;;0.40;0.40;;;;;;;7.98;100.00;98824.25;6109562;19;19998;-72
2024/02/04 06:46:27;;;;;;;0.40;0.40;;;;;;;8.02;100.00;98827.88;6111544;19;20034;-72
2024/02/04 06:48:27;;;;;;;0.50;0.50;;;;;;;8.01;100.00;98818.03;6111089;19;20113;-72
2024/02/04 06:50:27;;;;;;;0.70;0.50;;;;;;;7.99;100.00;98817.59;6109452;19;20006;-72
2024/02/04 06:52:28;;;;;;;0.43;0.43;;;;;;;8.04;100.00;98814.59;6110666;19;20010;-72
2024/02/04 06:54:28;;;;;;;0.40;0.40;;;;;;;8.04;100.00;98820.09;6111451;19;20082;-72
2024/02/04 06:56:28;;;;;;;1.60;0.88;;;;;;;8.01;100.00;98811.72;6110195;19;20010;-72
2024/02/04 06:58:29;;;;;;;0.77;0.50;;;;;;;7.97;100.00;98814.38;6111360;19;20409;-72
2024/02/04 07:00:29;;;;;;;0.50;0.50;;;;;;;7.97;100.00;98814.38;6109904;19;20014;-72
2024/02/04 07:02:30;;;;;;;3.42;0.80;;;;;;;7.92;100.00;98816.59;6111462;19;20018;-72
2024/02/04 07:04:30;;;;;;;2.83;0.70;;;;;;;8.04;100.00;98816.53;6111494;19;20040;-71
2024/02/04 07:06:30;;;;;;;3.05;0.70;;;;;;;8.01;100.00;98807.00;6109471;19;20415;-72
2024/02/04 07:08:31;;;;;;;0.93;0.70;;;;;;;7.99;100.00;98792.78;6109633;19;20013;-72
2024/02/04 07:10:31;;;;;;;0.57;0.57;;;;;;;8.11;100.00;98802.94;6110260;19;20070;-72
2024/02/04 07:12:31;;;;;;;0.57;0.57;;;;;;;8.08;100.00;98806.41;6110148;19;20087;-72
2024/02/04 07:14:31;;;;;;;0.68;0.52;;;;;;;8.11;100.00;98819.50;6111173;19;20070;-72
2024/02/04 07:16:32;;;;;;;0.60;0.50;;;;;;;8.09;100.00;98814.31;6109507;19;20038;-72
2024/02/04 07:18:32;;;;;;;1.20;0.63;;;;;;;8.08;100.00;98812.72;6109662;19;20010;-72
2024/02/04 07:20:32;;;;;;;0.60;0.60;;;;;;;8.06;100.00;98820.53;6106650;19;20485;-72
2024/02/04 07:22:34;;;;;;;0.77;0.60;;;;;;;8.05;100.00;98831.91;6110574;19;20011;-72
2024/02/04 07:24:35;;;;;;;1.23;0.82;;;;;;;8.15;100.00;98839.66;6110577;19;20339;-72
2024/02/04 07:26:35;;;;;;;1.73;0.90;;;;;;;8.17;100.00;98832.63;6108831;19;20014;-72
2024/02/04 07:28:36;;;;;;;1.25;0.70;;;;;;;8.17;100.00;98824.38;6110590;19;20319;-72
2024/02/04 07:30:37;;;;;;;2.50;0.68;;;;;;;8.11;100.00;98809.25;6110546;19;20013;-72
2024/02/04 07:32:37;;;;;;;0.68;0.68;;;;;;;8.10;100.00;98812.34;6108672;19;20062;-72
2024/02/04 07:34:37;;;;;;;0.80;0.70;;;;;;;8.11;100.00;98816.72;6108035;19;20058;-72
2024/02/04 07:36:38;;;;;;;2.20;1.15;;;;;;;8.06;100.00;98816.97;6108653;19;20003;-72
2024/02/04 07:38:38;;;;;;;0.80;0.80;;;;;;;8.04;100.00;98811.81;6109138;19;20410;-72
2024/02/04 07:40:38;;;;;;;2.25;1.08;;;;;;;8.08;100.00;98804.44;6109015;19;20036;-72
2024/02/04 07:42:39;;;;;;;5.75;2.20;;;;;;;8.19;100.00;98793.69;6110013;19;20006;-72
2024/02/04 07:44:39;;;;;;;4.25;1.85;;;;;;;8.11;100.00;98805.72;6110753;19;20002;-72
2024/02/04 07:46:39;;;;;;;5.50;2.05;;;;;;;8.18;100.00;98817.69;6100741;19;20010;-72
2024/02/04 07:48:40;;;;;;;1.60;1.20;;;;;;;8.20;100.00;98824.84;6107885;19;20003;-72
2024/02/04 07:50:40;;;;;;;1.00;0.80;;;;;;;8.16;100.00;98827.47;6109005;19;20009;-72
2024/02/04 07:52:40;;;;;;;3.42;0.80;;;;;;;8.18;100.00;98808.63;6109184;19;20003;-72
2024/02/04 07:54:41;;;;;;;0.50;0.50;;;;;;;8.11;100.00;98813.97;6109196;19;20448;-72
2024/02/04 07:56:41;;;;;;;0.60;0.60;;;;;;;8.06;100.00;98800.44;6105300;19;20006;-72
2024/02/04 07:58:41;;;;;;;0.50;0.50;;;;;;;8.02;100.00;98803.09;6105919;19;20558;-72
2024/02/04 08:00:42;;;;;;;0.40;0.40;;;;;;;7.99;100.00;98825.06;6108552;19;20011;-72
2024/02/04 08:02:44;;;;;;;1.65;0.60;;;;;;;7.98;100.00;98817.94;6108225;19;20011;-72
2024/02/04 08:04:44;;;;;;;0.40;0.40;;;;;;;7.93;100.00;98818.97;6109489;19;20042;-72
2024/02/04 08:06:45;;;;;;;0.47;0.47;;;;;;;7.88;100.00;98816.50;6105189;19;20007;-72
2024/02/04 08:08:47;;;;;;;0.40;0.40;;;;;;;7.87;100.00;98815.69;6108053;19;20506;-72
2024/02/04 08:10:47;;;;;;;0.55;0.50;;;;;;;7.84;100.00;98802.59;6108244;19;20006;-72
2024/02/04 08:12:50;;;;;;;0.50;0.50;;;;;;;7.83;100.00;98798.25;6106131;19;20013;-72
2024/02/04 08:14:51;;;;;;;0.57;0.57;;;;;;;7.84;100.00;98799.06;6107643;19;20070;-72
2024/02/04 08:16:51;;;;;;;0.68;0.50;;;;;;;7.84;100.00;98801.81;6105862;19;20452;-72
2024/02/04 08:18:51;;;;;;;2.95;1.50;;;;;;;7.84;100.00;98796.31;6108359;19;20455;-72
2024/02/04 08:20:52;;;;;;;1.17;1.00;;;;;;;7.80;100.00;98792.66;6107618;19;20013;-72
2024/02/04 08:22:54;;;;;;;0.73;0.73;;;;;;;7.84;100.00;98790.78;6108225;19;19995;-72
2024/02/04 08:24:54;;;;;;;1.00;0.60;;;;;;;7.90;100.00;98781.13;6109500;19;20010;-72
2024/02/04 08:26:55;;;;;;;0.95;0.55;;;;;;;7.94;100.00;98803.25;6106741;19;19999;-72
2024/02/04 08:28:55;;;;;;;0.55;0.50;;;;;;;7.92;100.00;98786.28;6106206;19;20445;-72
2024/02/04 08:30:56;;;;;;;3.20;2.13;;;;;;;7.98;100.00;98791.19;6106037;19;20010;-72
2024/02/04 08:32:57;;;;;;;1.70;0.90;;;;;;;7.98;100.00;98784.88;6102544;19;20021;-72
2024/02/04 08:34:57;;;;;;;1.35;1.10;;;;;;;8.01;100.00;98778.66;6107389;19;20346;-72
2024/02/04 08:36:57;;;;;;;1.38;1.10;;;;;;;8.07;100.00;98785.50;6106743;19;20018;-72
2024/02/04 08:38:58;;;;;;;3.80;1.55;;;;;;;8.06;100.00;98789.41;6102475;19;20011;-72
2024/02/04 08:40:58;;;;;;;3.25;1.80;;;;;;;8.07;100.00;98780.00;6107400;19;20385;-72
2024/02/04 08:42:58;;;;;;;2.83;1.60;;;;;;;8.07;100.00;98778.03;6106027;19;20002;-72
2024/02/04 08:44:58;;;;;;;2.35;1.60;;;;;;;8.14;100.00;98780.97;6108616;19;20003;-72
2024/02/04 08:46:59;;;;;;;1.60;1.20;;;;;;;8.20;100.00;98787.03;6097782;19;20006;-72
2024/02/04 08:48:59;;;;;;;3.47;2.03;;;;;;;8.35;100.00;98785.47;6092490;19;20344;-72
2024/02/04 08:51:00;;;;;;;4.47;2.63;;;;;;;8.37;100.00;98791.44;6093182;19;20897;-72
2024/02/04 08:53:00;;;;;;;3.70;2.63;;;;;;;8.40;100.00;98790.72;6093147;19;20006;-72
2024/02/04 08:55:03;;;;;;;3.13;2.25;;;;;;;8.38;100.00;98791.06;6093760;19;20007;-72
2024/02/04 08:57:04;;;;;;;4.40;2.67;;;;;;;8.44;100.00;98791.63;6092183;19;20011;-72
2024/02/04 08:59:06;;;;;;;2.33;1.80;;;;;;;8.47;100.00;98803.88;6093035;19;20006;-72
2024/02/04 09:01:06;;;;;;;2.83;2.17;;;;;;;8.52;100.00;98803.59;6089661;19;20030;-72
2024/02/04 09:03:07;;;;;;;2.83;2.00;;;;;;;8.53;100.00;98796.94;6092873;19;20007;-72
2024/02/04 09:05:08;;;;;;;2.70;1.90;;;;;;;8.59;100.00;98795.50;6092935;19;20462;-72
2024/02/04 09:07:08;;;;;;;3.28;2.20;;;;;;;8.62;100.00;98803.88;6091682;19;20403;-71
2024/02/04 09:09:09;;;;;;;2.72;1.73;;;;;;;8.71;100.00;98798.97;6088444;19;20035;-72
2024/02/04 09:11:09;;;;;;;2.95;1.98;;;;;;;8.70;100.00;98805.66;6092366;19;20002;-71
2024/02/04 09:13:09;;;;;;;4.40;2.38;;;;;;;8.79;100.00;98788.13;6092758;19;20015;-71
2024/02/04 09:15:10;;;;;;;2.85;2.25;;;;;;;8.73;100.00;98782.06;6092668;19;20478;-72
2024/02/04 09:17:10;;;;;;;2.92;2.05;;;;;;;8.75;100.00;98785.25;6090384;19;20002;-71
2024/02/04 09:19:11;;;;;;;3.25;2.22;;;;;;;8.78;100.00;98781.00;6092373;19;20027;-71
2024/02/04 09:21:11;;;;;;;2.67;1.88;;;;;;;8.82;100.00;98784.63;6091630;19;20330;-71
2024/02/04 09:23:12;;;;;;;3.38;2.20;;;;;;;8.87;100.00;98770.56;6091788;19;20006;-71
2024/02/04 09:25:12;;;;;;;3.05;2.13;;;;;;;8.90;100.00;98767.06;6091300;19;20707;-71
2024/02/04 09:27:12;;;;;;;4.35;2.13;;;;;;;8.86;100.00;98750.44;6091345;19;19998;-71
2024/02/04 09:29:12;;;;;;;3.10;2.08;;;;;;;8.87;100.00;98741.00;6091204;19;20868;-72